To NAV CANADA Home Page Login to a new session Search on AWWS site Feedback and Comments Disclaimer Vers la page française équivalente Tips FAQ What's new on the site To the Forecasts and Observations / NOTAM section To "File a Flight Plan" website Publications and other links Update of the User's profile FIC Telephone Numbers My Weather Data Folder Route Weather Data Regional Weather Data Local Weather Data To the Forecasts and Observations / NOTAM section
Request Generated 07/31/2015 at 07:16:48 UTC . Weather information available at that time is displayed.

METAR/TAF

TRENTON/ON    

METAR CYTR 310700Z 28005KT 15SM SKC 20/14 A2981 RMK SLP096=
METAR CYTR 310600Z 28008KT 15SM SKC 21/14 A2981 RMK SLP095=
METAR CYTR 310500Z 30008KT 15SM SKC 22/13 A2981 RMK SLP095=

TAF CYTR 310530Z 3106/0106 30008KT P6SM SKC
FM311900 22012G22KT P6SM SCT060 BKN080 TEMPO 3119/0106 5SM -SHRA
BR PROB30 3120/3124 VRB15G25KT 2SM TSRA BR BKN010 OVC030CB
RMK NXT FCST BY 311200Z=
Your time UTC time
Weather data provided by Environment Canada and NAV CANADA